createdAt,value
2019-02-24T00:02:00.340Z,6.53
2019-02-24T00:04:48.290Z,6.90
2019-02-24T00:07:36.267Z,6.20
2019-02-24T00:10:23.776Z,5.93
2019-02-24T00:13:11.829Z,5.93
2019-02-24T00:15:59.520Z,6.30
2019-02-24T00:18:47.145Z,6.70
2019-02-24T00:21:35.140Z,5.93
2019-02-24T00:24:22.706Z,6.60
2019-02-24T00:27:10.788Z,6.73
2019-02-24T00:29:58.611Z,5.57
2019-02-24T00:32:46.382Z,6.77
2019-02-24T00:35:34.111Z,6.23
2019-02-24T00:38:22.193Z,6.47
2019-02-24T00:41:09.923Z,5.97
2019-02-24T00:43:58.110Z,6.40
2019-02-24T00:46:45.806Z,5.63
2019-02-24T00:49:33.456Z,6.53
2019-02-24T00:52:21.324Z,6.70
2019-02-24T00:55:09.051Z,7.47
2019-02-24T00:57:56.821Z,7.17
2019-02-24T01:00:44.193Z,7.67
2019-02-24T01:03:31.795Z,7.67
2019-02-24T01:06:19.357Z,8.37
2019-02-24T01:09:07.165Z,9.07
2019-02-24T01:11:54.856Z,9.00
2019-02-24T01:14:42.390Z,8.70
2019-02-24T01:17:30.717Z,8.60
2019-02-24T01:20:17.917Z,8.03
2019-02-24T01:23:06.040Z,9.07
2019-02-24T01:25:53.809Z,7.87
2019-02-24T01:28:41.414Z,9.13
2019-02-24T01:31:29.192Z,8.03
2019-02-24T01:34:17.111Z,7.43
2019-02-24T01:37:05.028Z,8.63
2019-02-24T01:39:52.587Z,8.50
2019-02-24T01:42:40.398Z,8.30
2019-02-24T01:45:27.800Z,7.60
2019-02-24T01:48:15.455Z,9.00
2019-02-24T01:51:02.865Z,7.97
2019-02-24T01:53:50.322Z,9.17
2019-02-24T01:56:38.181Z,7.90
2019-02-24T01:59:25.608Z,7.47
2019-02-24T02:02:13.017Z,8.43
2019-02-24T02:05:00.507Z,7.63
2019-02-24T02:07:48.209Z,8.20
2019-02-24T02:10:36.194Z,8.27
2019-02-24T02:13:23.942Z,7.23
2019-02-24T02:16:11.958Z,8.63
2019-02-24T02:18:59.540Z,8.10
2019-02-24T02:21:46.872Z,8.80
2019-02-24T02:24:34.761Z,7.80
2019-02-24T02:27:22.311Z,8.43
2019-02-24T02:30:10.402Z,8.63
2019-02-24T02:32:58.514Z,8.43
2019-02-24T02:35:45.877Z,8.97
2019-02-24T02:38:33.420Z,8.90
2019-02-24T02:41:20.877Z,9.10
2019-02-24T02:44:08.669Z,9.37
2019-02-24T02:46:56.325Z,8.53
2019-02-24T02:49:44.025Z,8.93
2019-02-24T02:52:32.567Z,10.00
2019-02-24T02:55:20.379Z,9.70
2019-02-24T02:58:08.298Z,10.13
2019-02-24T03:00:55.961Z,9.60
2019-02-24T03:03:43.565Z,10.83
2019-02-24T03:06:40.153Z,10.90
2019-02-24T03:09:27.606Z,11.07
2019-02-24T03:12:16.073Z,10.73
2019-02-24T03:15:06.003Z,11.03
2019-02-24T03:17:53.729Z,10.77
2019-02-24T03:20:41.484Z,11.77
2019-02-24T03:23:29.669Z,12.10
2019-02-24T03:26:17.801Z,12.63
2019-02-24T03:29:06.008Z,12.60
2019-02-24T03:31:53.978Z,12.40
2019-02-24T03:34:41.524Z,12.60
2019-02-24T03:37:29.407Z,12.93
2019-02-24T03:40:17.558Z,13.17
2019-02-24T03:43:05.101Z,12.80
2019-02-24T03:45:53.169Z,12.47
2019-02-24T03:48:40.836Z,11.87
2019-02-24T03:51:28.786Z,13.30
2019-02-24T03:54:16.355Z,14.20
2019-02-24T03:57:04.224Z,13.27
2019-02-24T03:59:52.326Z,14.93
2019-02-24T04:02:40.737Z,14.60
2019-02-24T04:05:28.879Z,13.87
2019-02-24T04:08:16.982Z,14.83
2019-02-24T04:11:05.461Z,15.03
2019-02-24T04:13:53.548Z,15.70
2019-02-24T04:16:41.844Z,15.00
2019-02-24T04:19:29.821Z,15.43
2019-02-24T04:22:17.909Z,15.80
2019-02-24T04:25:06.168Z,16.70
2019-02-24T04:27:53.661Z,16.83
2019-02-24T04:30:41.182Z,15.50
2019-02-24T04:33:28.857Z,16.00
2019-02-24T04:36:17.146Z,16.50
2019-02-24T04:39:05.534Z,16.50
2019-02-24T04:41:53.563Z,16.73
2019-02-24T04:44:40.859Z,16.90
2019-02-24T04:47:28.463Z,17.17
2019-02-24T04:50:16.413Z,16.23
2019-02-24T04:53:03.903Z,16.17
2019-02-24T04:55:51.470Z,17.27
2019-02-24T04:58:39.322Z,16.27
2019-02-24T05:01:27.566Z,16.63
2019-02-24T05:04:14.999Z,16.47
2019-02-24T05:07:02.747Z,17.33
2019-02-24T05:09:50.766Z,16.33
2019-02-24T05:12:38.345Z,16.93
2019-02-24T05:15:26.075Z,17.80
2019-02-24T05:18:13.687Z,16.97
2019-02-24T05:21:01.284Z,17.10
2019-02-24T05:23:49.438Z,17.57
2019-02-24T05:26:49.466Z,18.03
2019-02-24T05:29:45.410Z,17.23
2019-02-24T05:32:26.306Z,18.27
2019-02-24T05:35:14.280Z,17.13
2019-02-24T05:38:01.796Z,18.33
2019-02-24T05:40:50.229Z,18.00
2019-02-24T05:43:38.053Z,18.10
2019-02-24T05:46:25.903Z,17.43
2019-02-24T05:49:13.487Z,18.83
2019-02-24T05:52:01.163Z,19.27
2019-02-24T05:54:48.894Z,18.60
2019-02-24T05:57:36.365Z,19.60
2019-02-24T06:00:24.059Z,18.83
2019-02-24T06:03:12.181Z,19.50
2019-02-24T06:05:59.805Z,17.50
2019-02-24T06:08:47.677Z,20.00
2019-02-24T06:11:35.286Z,20.53
2019-02-24T06:14:22.889Z,20.77
2019-02-24T06:17:10.870Z,20.93
2019-02-24T06:19:58.632Z,21.70
2019-02-24T06:22:46.369Z,22.33
2019-02-24T06:25:33.654Z,20.43
2019-02-24T06:28:21.462Z,21.70
2019-02-24T06:31:09.380Z,20.70
2019-02-24T06:33:57.155Z,21.67
2019-02-24T06:36:45.093Z,22.03
2019-02-24T06:39:32.440Z,22.60
2019-02-24T06:42:20.207Z,21.57
2019-02-24T06:45:08.768Z,23.67
2019-02-24T06:47:56.413Z,22.67
2019-02-24T06:51:02.018Z,22.87
2019-02-24T06:53:49.356Z,22.43
2019-02-24T06:56:37.028Z,23.23
2019-02-24T06:59:24.743Z,22.90
2019-02-24T07:02:12.251Z,23.30
2019-02-24T07:05:00.093Z,24.07
2019-02-24T07:07:48.192Z,23.93
2019-02-24T07:10:35.573Z,23.47
2019-02-24T07:13:23.077Z,24.60
2019-02-24T07:16:10.664Z,23.33
2019-02-24T07:18:59.058Z,24.23
2019-02-24T07:21:46.851Z,25.97
2019-02-24T07:24:35.076Z,25.47
2019-02-24T07:27:22.585Z,25.13
2019-02-24T07:30:10.472Z,25.60
2019-02-24T07:32:57.913Z,26.17
2019-02-24T07:35:45.772Z,26.57
2019-02-24T07:38:33.739Z,24.93
2019-02-24T07:41:21.290Z,26.80
2019-02-24T07:44:08.792Z,24.20
2019-02-24T07:46:56.326Z,24.13
2019-02-24T07:49:43.887Z,24.23
2019-02-24T07:52:31.221Z,23.73
2019-02-24T07:55:18.686Z,27.07
2019-02-24T07:58:06.096Z,26.27
2019-02-24T08:00:54.305Z,24.73
2019-02-24T08:03:41.881Z,26.63
2019-02-24T08:06:29.818Z,27.57
2019-02-24T08:09:17.330Z,26.10
2019-02-24T08:12:04.824Z,25.53
2019-02-24T08:14:52.547Z,25.17
2019-02-24T08:17:40.059Z,26.80
2019-02-24T08:20:27.731Z,26.70
2019-02-24T08:23:15.524Z,23.77
2019-02-24T08:26:03.110Z,23.07
2019-02-24T08:28:50.968Z,21.97
2019-02-24T08:31:38.884Z,21.73
2019-02-24T08:34:26.238Z,21.90
2019-02-24T08:37:13.960Z,17.00
2019-02-24T08:40:01.781Z,19.30
2019-02-24T08:42:49.591Z,18.80
2019-02-24T08:45:37.308Z,18.40
2019-02-24T08:48:24.982Z,20.00
2019-02-24T08:51:13.014Z,17.73
2019-02-24T08:54:01.134Z,19.17
2019-02-24T08:56:48.850Z,18.63
2019-02-24T08:59:38.337Z,18.43
2019-02-24T09:02:26.350Z,16.37
2019-02-24T09:05:14.009Z,16.13
2019-02-24T09:08:02.559Z,16.27
2019-02-24T09:10:50.002Z,17.67
2019-02-24T09:13:37.492Z,16.23
2019-02-24T09:16:25.041Z,14.77
2019-02-24T09:19:12.554Z,15.43
2019-02-24T09:22:00.265Z,14.30
2019-02-24T09:24:48.299Z,15.07
2019-02-24T09:27:36.077Z,14.93
2019-02-24T09:30:24.390Z,15.27
2019-02-24T09:33:12.783Z,16.00
2019-02-24T09:36:00.518Z,17.33
2019-02-24T09:38:48.294Z,17.60
2019-02-24T09:41:36.287Z,15.10
2019-02-24T09:44:24.685Z,16.47
2019-02-24T09:47:12.863Z,17.40
2019-02-24T09:50:00.700Z,16.17
2019-02-24T09:52:48.626Z,16.37
2019-02-24T09:55:36.533Z,14.87
2019-02-24T09:58:23.987Z,13.03
2019-02-24T10:01:11.877Z,17.30
2019-02-24T10:03:59.366Z,17.27
2019-02-24T10:06:47.309Z,16.87
2019-02-24T10:09:35.555Z,16.87
2019-02-24T10:12:23.570Z,16.37
2019-02-24T10:15:10.944Z,18.57
2019-02-24T10:17:58.638Z,19.53
2019-02-24T10:20:46.354Z,16.53
2019-02-24T10:23:34.156Z,16.57
2019-02-24T10:26:21.894Z,16.13
2019-02-24T10:29:09.501Z,16.80
2019-02-24T10:31:57.085Z,16.27
2019-02-24T10:34:44.410Z,13.77
2019-02-24T10:37:32.511Z,14.80
2019-02-24T10:40:20.226Z,14.53
2019-02-24T10:43:07.793Z,13.93
2019-02-24T10:45:55.169Z,15.03
2019-02-24T10:48:43.059Z,11.53
2019-02-24T10:51:31.055Z,13.10
2019-02-24T10:54:19.120Z,14.80
2019-02-24T10:57:09.874Z,11.13
2019-02-24T10:59:56.112Z,12.20
2019-02-24T11:02:43.602Z,11.63
2019-02-24T11:05:31.654Z,10.57
2019-02-24T11:08:19.392Z,9.57
2019-02-24T11:11:07.201Z,10.10
2019-02-24T11:13:54.812Z,10.80
2019-02-24T11:16:42.712Z,8.17
2019-02-24T11:19:30.080Z,7.27
2019-02-24T11:22:18.048Z,7.33
2019-02-24T11:25:06.175Z,6.83
2019-02-24T11:27:54.291Z,8.07
2019-02-24T11:30:41.787Z,8.90
2019-02-24T11:33:29.454Z,7.73
2019-02-24T11:36:17.867Z,7.80
2019-02-24T11:39:11.700Z,5.40
2019-02-24T11:41:59.568Z,4.80
2019-02-24T11:44:46.910Z,4.83
2019-02-24T11:47:34.515Z,8.53
2019-02-24T11:50:22.803Z,6.73
2019-02-24T11:53:10.361Z,5.53
2019-02-24T11:55:57.825Z,6.53
2019-02-24T11:58:45.643Z,8.70
2019-02-24T12:01:33.755Z,7.90
2019-02-24T12:04:21.589Z,9.03
2019-02-24T12:07:09.012Z,7.70
2019-02-24T12:09:56.598Z,5.90
2019-02-24T12:12:44.944Z,7.20
2019-02-24T12:15:32.434Z,6.17
2019-02-24T12:18:20.552Z,6.30
2019-02-24T12:21:08.061Z,7.40
2019-02-24T12:23:55.734Z,4.93
2019-02-24T12:26:43.251Z,5.50
2019-02-24T12:29:31.031Z,6.50
2019-02-24T12:32:18.645Z,7.30
2019-02-24T12:35:06.688Z,7.00
2019-02-24T12:37:54.161Z,6.43
2019-02-24T12:40:41.622Z,5.40
2019-02-24T12:43:29.206Z,7.53
2019-02-24T12:46:17.032Z,6.60
2019-02-24T12:49:04.866Z,7.67
2019-02-24T12:51:52.502Z,6.30
2019-02-24T12:54:40.241Z,6.53
2019-02-24T12:57:27.858Z,5.77
2019-02-24T13:00:17.551Z,6.60
2019-02-24T13:03:04.918Z,6.57
2019-02-24T13:05:52.750Z,7.70
2019-02-24T13:08:40.697Z,5.67
2019-02-24T13:11:28.417Z,6.90
2019-02-24T13:14:15.857Z,4.53
2019-02-24T13:17:03.818Z,5.50
2019-02-24T13:19:51.561Z,5.73
2019-02-24T13:22:39.627Z,5.17
2019-02-24T13:25:28.003Z,7.27
2019-02-24T13:28:15.769Z,8.13
2019-02-24T13:31:03.904Z,8.93
2019-02-24T13:33:51.935Z,5.23
2019-02-24T13:36:39.873Z,4.50
2019-02-24T13:39:27.775Z,5.50
2019-02-24T13:42:15.796Z,7.67
2019-02-24T13:45:03.596Z,5.53
2019-02-24T13:47:51.424Z,6.27
2019-02-24T13:50:41.127Z,5.43
2019-02-24T13:53:29.993Z,4.53
2019-02-24T13:56:17.465Z,4.57
2019-02-24T13:59:05.478Z,4.60
2019-02-24T14:01:53.546Z,8.50
2019-02-24T14:04:41.840Z,5.07
2019-02-24T14:07:29.798Z,4.73
2019-02-24T14:10:17.908Z,5.03
2019-02-24T14:13:06.189Z,5.43
2019-02-24T14:15:53.992Z,4.00
2019-02-24T14:18:41.556Z,4.43
2019-02-24T14:21:29.432Z,4.97
2019-02-24T14:24:17.303Z,3.33
2019-02-24T14:27:05.639Z,3.83
2019-02-24T14:29:53.240Z,4.13
2019-02-24T14:32:41.393Z,5.57
2019-02-24T14:35:30.654Z,3.73
2019-02-24T14:38:18.634Z,7.70
2019-02-24T14:41:06.473Z,5.07
2019-02-24T14:43:54.712Z,4.57
2019-02-24T14:46:42.705Z,4.20
2019-02-24T14:49:30.234Z,10.77
2019-02-24T14:52:18.702Z,4.30
2019-02-24T14:55:06.820Z,4.73
2019-02-24T14:57:54.412Z,3.40
2019-02-24T15:00:42.062Z,4.60
2019-02-24T15:03:29.961Z,4.30
2019-02-24T15:06:17.513Z,3.83
2019-02-24T15:09:16.236Z,5.33
2019-02-24T15:12:10.163Z,4.40
2019-02-24T15:15:01.863Z,3.80
2019-02-24T15:17:50.026Z,3.93
2019-02-24T15:20:40.931Z,4.93
2019-02-24T15:23:31.964Z,3.60
2019-02-24T15:26:20.609Z,4.27
2019-02-24T15:29:08.371Z,3.33
2019-02-24T15:31:57.782Z,3.77
2019-02-24T15:34:47.714Z,5.27
2019-02-24T15:37:35.940Z,3.77
2019-02-24T15:40:26.422Z,4.20
2019-02-24T15:43:14.930Z,4.53
2019-02-24T15:46:05.819Z,3.90
2019-02-24T15:48:53.501Z,3.90
2019-02-24T15:51:47.108Z,3.73
2019-02-24T15:54:39.914Z,3.70
2019-02-24T15:57:31.366Z,4.10
2019-02-24T16:00:21.175Z,4.33
2019-02-24T16:03:09.838Z,4.77
2019-02-24T16:05:58.745Z,4.57
2019-02-24T16:08:46.871Z,2.90
2019-02-24T16:11:36.960Z,3.23
2019-02-24T16:14:32.409Z,5.80
2019-02-24T16:17:20.096Z,3.70
2019-02-24T16:20:09.394Z,6.33
2019-02-24T16:22:57.602Z,2.93
2019-02-24T16:25:45.352Z,5.00
2019-02-24T16:28:33.184Z,4.80
2019-02-24T16:31:20.689Z,5.13
2019-02-24T16:34:08.532Z,3.47
2019-02-24T16:36:55.948Z,7.00
2019-02-24T16:39:43.772Z,5.80
2019-02-24T16:42:31.341Z,3.80
2019-02-24T16:45:19.340Z,3.47
2019-02-24T16:48:07.151Z,11.50
2019-02-24T16:50:54.855Z,20.57
2019-02-24T16:53:42.829Z,32.20
2019-02-24T16:56:30.333Z,29.13
2019-02-24T16:59:18.207Z,33.50
2019-02-24T17:02:05.903Z,59.73
2019-02-24T17:04:53.594Z,31.10
2019-02-24T17:07:40.966Z,6.40
2019-02-24T17:10:28.375Z,8.23
2019-02-24T17:13:16.124Z,5.13
2019-02-24T17:16:03.836Z,3.57
2019-02-24T17:18:51.674Z,4.33
2019-02-24T17:21:39.545Z,3.13
2019-02-24T17:24:27.952Z,4.83
2019-02-24T17:27:15.573Z,3.50
2019-02-24T17:30:03.453Z,3.33
2019-02-24T17:32:51.426Z,4.70
2019-02-24T17:35:39.642Z,3.50
2019-02-24T17:38:27.711Z,5.10
2019-02-24T17:41:18.265Z,2.73
2019-02-24T17:44:06.058Z,3.00
2019-02-24T17:46:53.833Z,3.67
2019-02-24T17:49:41.744Z,4.10
2019-02-24T17:52:29.782Z,5.10
2019-02-24T17:55:17.711Z,3.53
2019-02-24T17:58:05.731Z,4.93
2019-02-24T18:01:00.412Z,3.37
2019-02-24T18:03:48.540Z,2.60
2019-02-24T18:06:37.090Z,2.80
2019-02-24T18:09:24.383Z,4.47
2019-02-24T18:12:12.286Z,3.43
2019-02-24T18:14:59.825Z,4.20
2019-02-24T18:17:47.622Z,2.63
2019-02-24T18:20:35.647Z,3.83
2019-02-24T18:23:23.550Z,2.80
2019-02-24T18:26:11.375Z,3.97
2019-02-24T18:28:59.040Z,5.00
2019-02-24T18:31:47.141Z,4.20
2019-02-24T18:34:35.252Z,3.47
2019-02-24T18:37:24.535Z,3.00
2019-02-24T18:40:12.831Z,4.17
2019-02-24T18:43:00.910Z,2.57
2019-02-24T18:45:48.627Z,3.53
2019-02-24T18:48:36.269Z,2.50
2019-02-24T18:51:24.106Z,3.67
2019-02-24T18:54:11.933Z,3.00
2019-02-24T18:56:59.982Z,2.23
2019-02-24T18:59:48.101Z,3.40
2019-02-24T19:02:36.595Z,2.83
2019-02-24T19:05:24.219Z,3.17
2019-02-24T19:08:12.280Z,2.93
2019-02-24T19:11:02.288Z,3.97
2019-02-24T19:13:50.293Z,4.33
2019-02-24T19:16:37.962Z,4.30
2019-02-24T19:19:28.197Z,4.10
2019-02-24T19:22:19.008Z,2.97
2019-02-24T19:25:07.079Z,3.70
2019-02-24T19:27:56.454Z,5.00
2019-02-24T19:30:44.552Z,3.30
2019-02-24T19:33:32.734Z,3.53
2019-02-24T19:36:27.113Z,3.07
2019-02-24T19:39:23.185Z,5.23
2019-02-24T19:42:33.902Z,4.63
2019-02-24T19:45:14.288Z,3.43
2019-02-24T19:48:03.381Z,3.13
2019-02-24T19:50:51.939Z,2.90
2019-02-24T19:53:42.921Z,3.03
2019-02-24T19:56:31.209Z,3.07
2019-02-24T19:59:20.626Z,2.73
2019-02-24T20:02:08.628Z,2.70
2019-02-24T20:04:57.176Z,5.10
2019-02-24T20:07:46.719Z,2.00
2019-02-24T20:10:35.031Z,3.23
2019-02-24T20:13:23.222Z,2.17
2019-02-24T20:16:10.681Z,2.63
2019-02-24T20:18:58.534Z,1.87
2019-02-24T20:21:50.543Z,2.50
2019-02-24T20:24:38.736Z,2.90
2019-02-24T20:27:43.474Z,3.47
2019-02-24T20:30:31.139Z,3.33
2019-02-24T20:33:19.573Z,3.50
2019-02-24T20:36:07.991Z,2.43
2019-02-24T20:38:55.765Z,2.53
2019-02-24T20:41:43.674Z,3.53
2019-02-24T20:44:31.972Z,4.83
2019-02-24T20:47:20.031Z,3.63
2019-02-24T20:50:16.450Z,2.40
2019-02-24T20:53:06.090Z,3.60
2019-02-24T20:55:54.061Z,4.13
2019-02-24T21:01:57.042Z,3.80
2019-02-24T21:04:48.307Z,3.43
2019-02-24T21:07:41.060Z,2.20
2019-02-24T21:10:32.665Z,2.17
2019-02-24T21:13:20.911Z,2.13
2019-02-24T21:16:12.504Z,3.83
2019-02-24T21:19:30.484Z,2.40
2019-02-24T21:22:19.307Z,2.53
2019-02-24T21:25:07.286Z,3.87
2019-02-24T21:27:55.960Z,5.43
2019-02-24T21:30:58.370Z,4.27
2019-02-24T21:33:46.377Z,2.93
2019-02-24T21:36:33.933Z,4.20
2019-02-24T21:39:22.625Z,3.33
2019-02-24T21:42:10.819Z,3.67
2019-02-24T21:44:59.475Z,2.77
2019-02-24T21:47:47.545Z,3.13
2019-02-24T21:50:35.918Z,3.70
2019-02-24T21:53:24.403Z,2.47
2019-02-24T21:56:15.649Z,2.73
2019-02-24T21:59:04.198Z,3.67
2019-02-24T22:01:52.215Z,4.43
2019-02-24T22:04:40.312Z,2.90
2019-02-24T22:07:29.731Z,2.93
2019-02-24T22:10:18.124Z,3.17
2019-02-24T22:13:06.537Z,2.43
2019-02-24T22:16:09.575Z,3.37
2019-02-24T22:18:57.627Z,3.33
2019-02-24T22:21:54.295Z,2.73
2019-02-24T22:24:42.996Z,3.13
2019-02-24T22:27:32.515Z,2.90
2019-02-24T22:30:24.490Z,2.73
2019-02-24T22:33:12.481Z,2.33
2019-02-24T22:36:00.982Z,4.30
2019-02-24T22:38:49.342Z,2.07
2019-02-24T22:41:37.898Z,2.27
2019-02-24T22:44:26.435Z,3.70
2019-02-24T22:47:19.183Z,3.23
2019-02-24T22:50:09.210Z,3.87
2019-02-24T22:52:56.975Z,3.63
2019-02-24T22:55:45.112Z,2.23
2019-02-24T22:58:34.090Z,2.90
2019-02-24T23:01:30.862Z,5.20
2019-02-24T23:04:20.099Z,2.87
2019-02-24T23:07:08.431Z,2.67
2019-02-24T23:09:56.411Z,3.07
2019-02-24T23:12:44.200Z,3.00
2019-02-24T23:15:31.892Z,2.47
2019-02-24T23:18:20.142Z,2.10
2019-02-24T23:21:07.779Z,4.13
2019-02-24T23:23:58.718Z,2.20
2019-02-24T23:26:47.028Z,3.93
2019-02-24T23:29:35.136Z,3.00
2019-02-24T23:32:23.165Z,2.30
2019-02-24T23:35:12.360Z,2.60
2019-02-24T23:38:01.667Z,3.43
2019-02-24T23:40:49.645Z,3.13
2019-02-24T23:43:37.335Z,4.60
2019-02-24T23:46:25.241Z,2.93
2019-02-24T23:49:14.611Z,2.67
2019-02-24T23:52:02.608Z,2.63
2019-02-24T23:54:53.118Z,5.00
2019-02-24T23:57:42.749Z,2.40
